sensor_id;sensor_type;location;lat;lon;timestamp;P1;durP1;ratioP1;P2;durP2;ratioP2
41480;SDS011;27217;51.220;5.308;2023-01-10T00:01:35;0.10;;;0.10;;
41480;SDS011;27217;51.220;5.308;2023-01-10T00:04:01;0.00;;;0.00;;
41480;SDS011;27217;51.220;5.308;2023-01-10T00:06:27;0.10;;;0.10;;
41480;SDS011;27217;51.220;5.308;2023-01-10T00:08:53;0.00;;;0.00;;
41480;SDS011;27217;51.220;5.308;2023-01-10T00:13:56;0.00;;;0.00;;
41480;SDS011;27217;51.220;5.308;2023-01-10T00:18:57;0.63;;;0.63;;
41480;SDS011;27217;51.220;5.308;2023-01-10T00:21:23;0.45;;;0.45;;
41480;SDS011;27217;51.220;5.308;2023-01-10T00:23:49;0.30;;;0.30;;
41480;SDS011;27217;51.220;5.308;2023-01-10T00:26:16;0.30;;;0.30;;
41480;SDS011;27217;51.220;5.308;2023-01-10T00:28:41;0.00;;;0.00;;
41480;SDS011;27217;51.220;5.308;2023-01-10T00:31:07;0.15;;;0.15;;
41480;SDS011;27217;51.220;5.308;2023-01-10T00:33:36;0.00;;;0.00;;
41480;SDS011;27217;51.220;5.308;2023-01-10T00:36:03;1.77;;;0.95;;
41480;SDS011;27217;51.220;5.308;2023-01-10T00:38:31;5.88;;;4.53;;
41480;SDS011;27217;51.220;5.308;2023-01-10T00:41:00;0.00;;;0.00;;
41480;SDS011;27217;51.220;5.308;2023-01-10T00:43:26;0.10;;;0.10;;
41480;SDS011;27217;51.220;5.308;2023-01-10T00:46:10;0.00;;;0.00;;
41480;SDS011;27217;51.220;5.308;2023-01-10T00:48:36;0.00;;;0.00;;
41480;SDS011;27217;51.220;5.308;2023-01-10T00:51:03;0.00;;;0.00;;
41480;SDS011;27217;51.220;5.308;2023-01-10T00:53:30;0.05;;;0.05;;
41480;SDS011;27217;51.220;5.308;2023-01-10T00:55:56;0.13;;;0.13;;
41480;SDS011;27217;51.220;5.308;2023-01-10T00:58:23;2.30;;;1.05;;
41480;SDS011;27217;51.220;5.308;2023-01-10T01:00:49;0.10;;;0.10;;
41480;SDS011;27217;51.220;5.308;2023-01-10T01:03:19;0.05;;;0.05;;
41480;SDS011;27217;51.220;5.308;2023-01-10T01:05:47;0.00;;;0.00;;
41480;SDS011;27217;51.220;5.308;2023-01-10T01:08:14;12.27;;;3.10;;
41480;SDS011;27217;51.220;5.308;2023-01-10T01:10:41;0.00;;;0.00;;
41480;SDS011;27217;51.220;5.308;2023-01-10T01:13:20;0.22;;;0.22;;
41480;SDS011;27217;51.220;5.308;2023-01-10T01:15:46;0.00;;;0.00;;
41480;SDS011;27217;51.220;5.308;2023-01-10T01:18:16;4.13;;;2.58;;
41480;SDS011;27217;51.220;5.308;2023-01-10T01:20:44;0.88;;;0.88;;
41480;SDS011;27217;51.220;5.308;2023-01-10T01:23:11;0.00;;;0.00;;
41480;SDS011;27217;51.220;5.308;2023-01-10T01:25:41;0.10;;;0.10;;
41480;SDS011;27217;51.220;5.308;2023-01-10T01:28:11;0.00;;;0.00;;
41480;SDS011;27217;51.220;5.308;2023-01-10T01:30:37;0.00;;;0.00;;
41480;SDS011;27217;51.220;5.308;2023-01-10T01:33:03;0.10;;;0.10;;
41480;SDS011;27217;51.220;5.308;2023-01-10T01:35:29;0.30;;;0.30;;
41480;SDS011;27217;51.220;5.308;2023-01-10T01:37:57;0.00;;;0.00;;
41480;SDS011;27217;51.220;5.308;2023-01-10T01:40:23;0.10;;;0.10;;
41480;SDS011;27217;51.220;5.308;2023-01-10T01:42:50;0.08;;;0.08;;
41480;SDS011;27217;51.220;5.308;2023-01-10T01:47:56;0.30;;;0.30;;
41480;SDS011;27217;51.220;5.308;2023-01-10T01:50:39;0.00;;;0.00;;
41480;SDS011;27217;51.220;5.308;2023-01-10T01:53:19;0.00;;;0.00;;
41480;SDS011;27217;51.220;5.308;2023-01-10T01:55:49;0.22;;;0.22;;
41480;SDS011;27217;51.220;5.308;2023-01-10T01:58:19;0.10;;;0.10;;
41480;SDS011;27217;51.220;5.308;2023-01-10T02:00:51;0.03;;;0.03;;
41480;SDS011;27217;51.220;5.308;2023-01-10T02:03:17;0.00;;;0.00;;
41480;SDS011;27217;51.220;5.308;2023-01-10T02:05:43;1.35;;;1.17;;
41480;SDS011;27217;51.220;5.308;2023-01-10T02:08:10;0.35;;;0.35;;
41480;SDS011;27217;51.220;5.308;2023-01-10T02:10:43;0.28;;;0.28;;
41480;SDS011;27217;51.220;5.308;2023-01-10T02:13:20;0.10;;;0.10;;
41480;SDS011;27217;51.220;5.308;2023-01-10T02:15:49;0.00;;;0.00;;
41480;SDS011;27217;51.220;5.308;2023-01-10T02:18:16;0.00;;;0.00;;
41480;SDS011;27217;51.220;5.308;2023-01-10T02:20:53;0.20;;;0.20;;
41480;SDS011;27217;51.220;5.308;2023-01-10T02:39:58;0.03;;;0.03;;
41480;SDS011;27217;51.220;5.308;2023-01-10T02:42:35;0.10;;;0.10;;
41480;SDS011;27217;51.220;5.308;2023-01-10T02:45:23;0.20;;;0.20;;
41480;SDS011;27217;51.220;5.308;2023-01-10T02:48:02;0.00;;;0.00;;
41480;SDS011;27217;51.220;5.308;2023-01-10T02:50:30;0.00;;;0.00;;
41480;SDS011;27217;51.220;5.308;2023-01-10T02:52:59;0.10;;;0.10;;
41480;SDS011;27217;51.220;5.308;2023-01-10T03:03:40;0.75;;;0.75;;
41480;SDS011;27217;51.220;5.308;2023-01-10T03:08:45;0.05;;;0.05;;
41480;SDS011;27217;51.220;5.308;2023-01-10T03:11:24;22.27;;;2.58;;
41480;SDS011;27217;51.220;5.308;2023-01-10T03:14:24;23.00;;;3.65;;
41480;SDS011;27217;51.220;5.308;2023-01-10T03:16:59;15.15;;;3.35;;
41480;SDS011;27217;51.220;5.308;2023-01-10T03:19:30;42.10;;;4.45;;
41480;SDS011;27217;51.220;5.308;2023-01-10T03:21:59;27.65;;;3.63;;
41480;SDS011;27217;51.220;5.308;2023-01-10T03:24:44;29.67;;;4.53;;
41480;SDS011;27217;51.220;5.308;2023-01-10T03:27:26;20.55;;;2.72;;
41480;SDS011;27217;51.220;5.308;2023-01-10T03:32:42;31.55;;;5.40;;
41480;SDS011;27217;51.220;5.308;2023-01-10T03:35:08;25.63;;;3.45;;
41480;SDS011;27217;51.220;5.308;2023-01-10T03:43:07;23.48;;;3.33;;
41480;SDS011;27217;51.220;5.308;2023-01-10T03:45:57;31.98;;;3.75;;
41480;SDS011;27217;51.220;5.308;2023-01-10T03:48:30;35.17;;;6.22;;
41480;SDS011;27217;51.220;5.308;2023-01-10T03:51:01;27.63;;;3.35;;
41480;SDS011;27217;51.220;5.308;2023-01-10T03:53:31;25.90;;;2.95;;
41480;SDS011;27217;51.220;5.308;2023-01-10T03:55:58;23.95;;;4.10;;
41480;SDS011;27217;51.220;5.308;2023-01-10T03:58:25;26.58;;;4.72;;
41480;SDS011;27217;51.220;5.308;2023-01-10T04:00:54;38.83;;;5.00;;
41480;SDS011;27217;51.220;5.308;2023-01-10T04:03:20;26.05;;;3.05;;
41480;SDS011;27217;51.220;5.308;2023-01-10T04:05:46;26.67;;;4.07;;
41480;SDS011;27217;51.220;5.308;2023-01-10T04:08:12;24.15;;;4.20;;
41480;SDS011;27217;51.220;5.308;2023-01-10T04:10:38;28.42;;;3.90;;
41480;SDS011;27217;51.220;5.308;2023-01-10T04:13:07;29.60;;;4.53;;
41480;SDS011;27217;51.220;5.308;2023-01-10T04:15:34;33.67;;;3.30;;
41480;SDS011;27217;51.220;5.308;2023-01-10T04:17:59;24.83;;;3.80;;
41480;SDS011;27217;51.220;5.308;2023-01-10T04:20:26;22.45;;;3.40;;
41480;SDS011;27217;51.220;5.308;2023-01-10T04:22:52;31.52;;;4.22;;
41480;SDS011;27217;51.220;5.308;2023-01-10T04:25:19;29.08;;;3.53;;
41480;SDS011;27217;51.220;5.308;2023-01-10T04:27:51;37.90;;;4.72;;
41480;SDS011;27217;51.220;5.308;2023-01-10T04:30:17;25.80;;;4.22;;
41480;SDS011;27217;51.220;5.308;2023-01-10T04:32:44;22.55;;;3.05;;
41480;SDS011;27217;51.220;5.308;2023-01-10T04:35:11;36.08;;;3.15;;
41480;SDS011;27217;51.220;5.308;2023-01-10T04:37:37;33.70;;;4.40;;
41480;SDS011;27217;51.220;5.308;2023-01-10T04:40:03;34.25;;;5.28;;
41480;SDS011;27217;51.220;5.308;2023-01-10T04:42:32;16.48;;;3.35;;
41480;SDS011;27217;51.220;5.308;2023-01-10T04:44:58;26.02;;;3.75;;
41480;SDS011;27217;51.220;5.308;2023-01-10T04:47:24;24.65;;;3.50;;
41480;SDS011;27217;51.220;5.308;2023-01-10T04:49:50;32.38;;;4.90;;
41480;SDS011;27217;51.220;5.308;2023-01-10T04:52:15;28.05;;;3.30;;
41480;SDS011;27217;51.220;5.308;2023-01-10T04:54:41;28.75;;;4.47;;
41480;SDS011;27217;51.220;5.308;2023-01-10T04:57:07;23.95;;;3.40;;
41480;SDS011;27217;51.220;5.308;2023-01-10T04:59:33;25.92;;;3.35;;
41480;SDS011;27217;51.220;5.308;2023-01-10T05:01:59;38.53;;;4.35;;
41480;SDS011;27217;51.220;5.308;2023-01-10T05:04:24;30.20;;;3.47;;
41480;SDS011;27217;51.220;5.308;2023-01-10T05:06:51;27.58;;;4.47;;
41480;SDS011;27217;51.220;5.308;2023-01-10T05:09:17;31.95;;;3.85;;
41480;SDS011;27217;51.220;5.308;2023-01-10T05:11:44;24.70;;;3.22;;
41480;SDS011;27217;51.220;5.308;2023-01-10T05:14:10;22.50;;;3.50;;
41480;SDS011;27217;51.220;5.308;2023-01-10T05:16:38;38.08;;;6.38;;
41480;SDS011;27217;51.220;5.308;2023-01-10T05:19:04;20.60;;;3.35;;
41480;SDS011;27217;51.220;5.308;2023-01-10T05:21:30;31.52;;;4.32;;
41480;SDS011;27217;51.220;5.308;2023-01-10T05:23:57;22.92;;;3.22;;
41480;SDS011;27217;51.220;5.308;2023-01-10T05:26:23;33.00;;;4.03;;
41480;SDS011;27217;51.220;5.308;2023-01-10T05:28:49;35.83;;;4.90;;
41480;SDS011;27217;51.220;5.308;2023-01-10T05:31:17;20.67;;;3.08;;
41480;SDS011;27217;51.220;5.308;2023-01-10T05:33:44;27.40;;;3.67;;
41480;SDS011;27217;51.220;5.308;2023-01-10T05:36:12;29.52;;;4.55;;
41480;SDS011;27217;51.220;5.308;2023-01-10T05:38:38;24.77;;;4.90;;
41480;SDS011;27217;51.220;5.308;2023-01-10T05:41:04;28.88;;;3.67;;
41480;SDS011;27217;51.220;5.308;2023-01-10T05:43:30;22.73;;;3.25;;
41480;SDS011;27217;51.220;5.308;2023-01-10T05:45:57;36.15;;;3.88;;
41480;SDS011;27217;51.220;5.308;2023-01-10T05:48:28;24.00;;;4.00;;
41480;SDS011;27217;51.220;5.308;2023-01-10T05:50:54;30.00;;;4.00;;
41480;SDS011;27217;51.220;5.308;2023-01-10T05:53:23;25.83;;;3.90;;
41480;SDS011;27217;51.220;5.308;2023-01-10T05:55:53;36.22;;;4.55;;
41480;SDS011;27217;51.220;5.308;2023-01-10T05:58:21;12.45;;;2.35;;
41480;SDS011;27217;51.220;5.308;2023-01-10T06:00:48;35.35;;;4.47;;
41480;SDS011;27217;51.220;5.308;2023-01-10T06:03:14;31.58;;;4.10;;
41480;SDS011;27217;51.220;5.308;2023-01-10T06:05:40;27.95;;;4.75;;
41480;SDS011;27217;51.220;5.308;2023-01-10T06:08:06;27.52;;;3.42;;
41480;SDS011;27217;51.220;5.308;2023-01-10T06:10:32;26.20;;;3.75;;
41480;SDS011;27217;51.220;5.308;2023-01-10T06:12:57;41.40;;;4.22;;
41480;SDS011;27217;51.220;5.308;2023-01-10T06:15:24;28.25;;;3.55;;
41480;SDS011;27217;51.220;5.308;2023-01-10T06:17:50;32.65;;;3.38;;
41480;SDS011;27217;51.220;5.308;2023-01-10T06:20:19;28.80;;;4.35;;
41480;SDS011;27217;51.220;5.308;2023-01-10T06:22:45;26.27;;;3.28;;
41480;SDS011;27217;51.220;5.308;2023-01-10T06:25:11;31.52;;;4.13;;
41480;SDS011;27217;51.220;5.308;2023-01-10T06:27:40;28.17;;;3.35;;
41480;SDS011;27217;51.220;5.308;2023-01-10T06:30:08;34.15;;;4.22;;
41480;SDS011;27217;51.220;5.308;2023-01-10T06:32:36;41.22;;;5.13;;
41480;SDS011;27217;51.220;5.308;2023-01-10T06:35:03;34.75;;;4.32;;
41480;SDS011;27217;51.220;5.308;2023-01-10T06:37:29;41.15;;;5.68;;
41480;SDS011;27217;51.220;5.308;2023-01-10T06:39:56;42.85;;;5.05;;
41480;SDS011;27217;51.220;5.308;2023-01-10T06:42:22;33.55;;;5.63;;
41480;SDS011;27217;51.220;5.308;2023-01-10T06:44:48;46.83;;;5.07;;
41480;SDS011;27217;51.220;5.308;2023-01-10T06:47:14;50.38;;;6.78;;
41480;SDS011;27217;51.220;5.308;2023-01-10T06:49:40;45.67;;;5.35;;
41480;SDS011;27217;51.220;5.308;2023-01-10T06:52:06;47.45;;;6.18;;
41480;SDS011;27217;51.220;5.308;2023-01-10T06:54:32;38.58;;;6.72;;
41480;SDS011;27217;51.220;5.308;2023-01-10T06:56:57;43.30;;;6.45;;
41480;SDS011;27217;51.220;5.308;2023-01-10T07:01:55;39.95;;;5.95;;
41480;SDS011;27217;51.220;5.308;2023-01-10T07:04:21;27.17;;;6.10;;
41480;SDS011;27217;51.220;5.308;2023-01-10T07:06:46;63.20;;;8.90;;
41480;SDS011;27217;51.220;5.308;2023-01-10T07:09:12;40.60;;;5.38;;
41480;SDS011;27217;51.220;5.308;2023-01-10T07:11:38;47.88;;;5.90;;
41480;SDS011;27217;51.220;5.308;2023-01-10T07:14:03;42.60;;;5.53;;
41480;SDS011;27217;51.220;5.308;2023-01-10T07:16:30;33.95;;;4.07;;
41480;SDS011;27217;51.220;5.308;2023-01-10T07:18:55;39.40;;;4.72;;
41480;SDS011;27217;51.220;5.308;2023-01-10T07:21:22;23.83;;;3.80;;
41480;SDS011;27217;51.220;5.308;2023-01-10T07:23:48;32.13;;;4.97;;
41480;SDS011;27217;51.220;5.308;2023-01-10T07:26:14;28.00;;;3.63;;
41480;SDS011;27217;51.220;5.308;2023-01-10T07:28:51;36.58;;;5.30;;
41480;SDS011;27217;51.220;5.308;2023-01-10T07:31:18;37.80;;;5.22;;
41480;SDS011;27217;51.220;5.308;2023-01-10T07:33:46;32.08;;;5.22;;
41480;SDS011;27217;51.220;5.308;2023-01-10T07:36:12;28.92;;;4.03;;
41480;SDS011;27217;51.220;5.308;2023-01-10T07:38:38;35.42;;;3.92;;
41480;SDS011;27217;51.220;5.308;2023-01-10T07:41:04;30.50;;;4.45;;
41480;SDS011;27217;51.220;5.308;2023-01-10T07:43:30;38.67;;;5.50;;
41480;SDS011;27217;51.220;5.308;2023-01-10T07:45:59;33.53;;;4.35;;
41480;SDS011;27217;51.220;5.308;2023-01-10T07:48:28;36.47;;;4.80;;
41480;SDS011;27217;51.220;5.308;2023-01-10T07:50:55;35.80;;;5.93;;
41480;SDS011;27217;51.220;5.308;2023-01-10T07:53:21;28.30;;;5.03;;
41480;SDS011;27217;51.220;5.308;2023-01-10T07:55:47;26.67;;;4.68;;
41480;SDS011;27217;51.220;5.308;2023-01-10T07:58:14;24.98;;;4.32;;
41480;SDS011;27217;51.220;5.308;2023-01-10T08:00:39;47.20;;;5.10;;
41480;SDS011;27217;51.220;5.308;2023-01-10T08:03:05;36.53;;;6.30;;
41480;SDS011;27217;51.220;5.308;2023-01-10T08:05:31;44.03;;;6.80;;
41480;SDS011;27217;51.220;5.308;2023-01-10T08:08:02;32.90;;;5.00;;
41480;SDS011;27217;51.220;5.308;2023-01-10T08:10:32;37.13;;;4.80;;
41480;SDS011;27217;51.220;5.308;2023-01-10T08:12:59;34.90;;;5.40;;
41480;SDS011;27217;51.220;5.308;2023-01-10T08:15:25;31.95;;;5.20;;
41480;SDS011;27217;51.220;5.308;2023-01-10T08:17:51;47.25;;;6.93;;
41480;SDS011;27217;51.220;5.308;2023-01-10T08:20:17;42.08;;;6.07;;
41480;SDS011;27217;51.220;5.308;2023-01-10T08:22:43;40.30;;;7.20;;
41480;SDS011;27217;51.220;5.308;2023-01-10T08:25:09;33.20;;;7.03;;
41480;SDS011;27217;51.220;5.308;2023-01-10T08:27:35;40.58;;;8.43;;
41480;SDS011;27217;51.220;5.308;2023-01-10T08:30:02;48.15;;;8.75;;
41480;SDS011;27217;51.220;5.308;2023-01-10T08:32:29;39.47;;;6.85;;
41480;SDS011;27217;51.220;5.308;2023-01-10T08:34:54;35.70;;;6.88;;
41480;SDS011;27217;51.220;5.308;2023-01-10T08:37:20;43.03;;;7.13;;
41480;SDS011;27217;51.220;5.308;2023-01-10T08:39:47;32.20;;;6.93;;
41480;SDS011;27217;51.220;5.308;2023-01-10T08:42:15;46.65;;;6.78;;
41480;SDS011;27217;51.220;5.308;2023-01-10T08:44:42;42.67;;;5.75;;
41480;SDS011;27217;51.220;5.308;2023-01-10T08:47:09;32.65;;;5.40;;
41480;SDS011;27217;51.220;5.308;2023-01-10T08:49:34;34.25;;;5.95;;
41480;SDS011;27217;51.220;5.308;2023-01-10T08:52:00;42.50;;;6.43;;
41480;SDS011;27217;51.220;5.308;2023-01-10T08:54:26;36.28;;;5.93;;
41480;SDS011;27217;51.220;5.308;2023-01-10T08:56:52;38.50;;;5.53;;
41480;SDS011;27217;51.220;5.308;2023-01-10T08:59:18;32.28;;;5.93;;
41480;SDS011;27217;51.220;5.308;2023-01-10T09:01:44;32.22;;;5.72;;
41480;SDS011;27217;51.220;5.308;2023-01-10T09:04:10;35.75;;;5.78;;
41480;SDS011;27217;51.220;5.308;2023-01-10T09:06:36;31.52;;;5.40;;
41480;SDS011;27217;51.220;5.308;2023-01-10T09:09:03;31.20;;;4.78;;
41480;SDS011;27217;51.220;5.308;2023-01-10T09:11:28;38.60;;;5.50;;
41480;SDS011;27217;51.220;5.308;2023-01-10T09:13:54;30.92;;;5.57;;
41480;SDS011;27217;51.220;5.308;2023-01-10T09:16:20;25.63;;;4.45;;
41480;SDS011;27217;51.220;5.308;2023-01-10T09:18:46;34.85;;;5.60;;
41480;SDS011;27217;51.220;5.308;2023-01-10T09:21:12;34.92;;;5.85;;
41480;SDS011;27217;51.220;5.308;2023-01-10T09:23:38;25.20;;;4.25;;
41480;SDS011;27217;51.220;5.308;2023-01-10T09:26:04;43.42;;;7.05;;
41480;SDS011;27217;51.220;5.308;2023-01-10T09:28:30;43.15;;;5.80;;
41480;SDS011;27217;51.220;5.308;2023-01-10T09:30:56;30.30;;;5.70;;
41480;SDS011;27217;51.220;5.308;2023-01-10T09:33:23;33.83;;;6.80;;
41480;SDS011;27217;51.220;5.308;2023-01-10T09:35:49;26.85;;;4.03;;
41480;SDS011;27217;51.220;5.308;2023-01-10T09:38:15;52.05;;;6.40;;
41480;SDS011;27217;51.220;5.308;2023-01-10T09:46:40;31.85;;;5.47;;
41480;SDS011;27217;51.220;5.308;2023-01-10T09:51:55;40.38;;;5.97;;
41480;SDS011;27217;51.220;5.308;2023-01-10T09:54:27;44.33;;;6.80;;
41480;SDS011;27217;51.220;5.308;2023-01-10T09:56:57;34.22;;;5.43;;
41480;SDS011;27217;51.220;5.308;2023-01-10T09:59:37;42.22;;;5.70;;
41480;SDS011;27217;51.220;5.308;2023-01-10T10:02:12;27.67;;;4.65;;
41480;SDS011;27217;51.220;5.308;2023-01-10T10:04:43;24.85;;;4.22;;
41480;SDS011;27217;51.220;5.308;2023-01-10T10:07:34;34.45;;;4.40;;
41480;SDS011;27217;51.220;5.308;2023-01-10T10:10:00;37.15;;;4.85;;
41480;SDS011;27217;51.220;5.308;2023-01-10T10:15:10;25.33;;;4.47;;
41480;SDS011;27217;51.220;5.308;2023-01-10T10:17:48;24.55;;;3.50;;
41480;SDS011;27217;51.220;5.308;2023-01-10T10:26:06;30.02;;;3.40;;
41480;SDS011;27217;51.220;5.308;2023-01-10T10:31:48;23.58;;;3.15;;
41480;SDS011;27217;51.220;5.308;2023-01-10T10:34:34;34.42;;;4.25;;
41480;SDS011;27217;51.220;5.308;2023-01-10T10:42:02;21.42;;;3.92;;
41480;SDS011;27217;51.220;5.308;2023-01-10T10:44:44;40.15;;;4.50;;
41480;SDS011;27217;51.220;5.308;2023-01-10T10:47:20;25.55;;;4.22;;
41480;SDS011;27217;51.220;5.308;2023-01-10T10:52:35;33.53;;;3.80;;
41480;SDS011;27217;51.220;5.308;2023-01-10T10:55:01;19.55;;;4.53;;
41480;SDS011;27217;51.220;5.308;2023-01-10T10:57:30;24.02;;;4.03;;
41480;SDS011;27217;51.220;5.308;2023-01-10T10:59:59;23.63;;;3.50;;
41480;SDS011;27217;51.220;5.308;2023-01-10T11:02:27;23.85;;;4.07;;
41480;SDS011;27217;51.220;5.308;2023-01-10T11:05:05;22.23;;;4.32;;
41480;SDS011;27217;51.220;5.308;2023-01-10T11:07:39;21.33;;;3.70;;
41480;SDS011;27217;51.220;5.308;2023-01-10T11:10:15;23.95;;;4.25;;
41480;SDS011;27217;51.220;5.308;2023-01-10T11:13:01;28.35;;;3.85;;
41480;SDS011;27217;51.220;5.308;2023-01-10T11:15:37;36.30;;;4.18;;
41480;SDS011;27217;51.220;5.308;2023-01-10T11:18:13;26.50;;;5.28;;
41480;SDS011;27217;51.220;5.308;2023-01-10T11:29:07;36.55;;;7.00;;
41480;SDS011;27217;51.220;5.308;2023-01-10T11:31:41;24.88;;;3.35;;
41480;SDS011;27217;51.220;5.308;2023-01-10T11:34:16;32.67;;;5.45;;
41480;SDS011;27217;51.220;5.308;2023-01-10T11:36:52;32.92;;;4.55;;
41480;SDS011;27217;51.220;5.308;2023-01-10T11:39:19;25.35;;;4.00;;
41480;SDS011;27217;51.220;5.308;2023-01-10T11:41:44;21.42;;;3.70;;
41480;SDS011;27217;51.220;5.308;2023-01-10T11:47:18;27.52;;;3.92;;
41480;SDS011;27217;51.220;5.308;2023-01-10T11:49:46;28.17;;;3.92;;
41480;SDS011;27217;51.220;5.308;2023-01-10T11:52:25;34.28;;;4.13;;
41480;SDS011;27217;51.220;5.308;2023-01-10T12:01:27;20.27;;;3.38;;
41480;SDS011;27217;51.220;5.308;2023-01-10T12:04:25;21.02;;;3.95;;
41480;SDS011;27217;51.220;5.308;2023-01-10T12:07:00;21.25;;;2.95;;
41480;SDS011;27217;51.220;5.308;2023-01-10T12:12:21;24.23;;;3.92;;
41480;SDS011;27217;51.220;5.308;2023-01-10T12:14:55;35.38;;;5.22;;
41480;SDS011;27217;51.220;5.308;2023-01-10T12:17:26;16.42;;;3.53;;
41480;SDS011;27217;51.220;5.308;2023-01-10T12:19:54;33.08;;;3.92;;
41480;SDS011;27217;51.220;5.308;2023-01-10T12:22:26;27.25;;;3.47;;
41480;SDS011;27217;51.220;5.308;2023-01-10T12:24:59;26.63;;;3.55;;
41480;SDS011;27217;51.220;5.308;2023-01-10T12:27:30;26.60;;;3.90;;
41480;SDS011;27217;51.220;5.308;2023-01-10T12:30:05;22.10;;;3.25;;
41480;SDS011;27217;51.220;5.308;2023-01-10T12:32:40;23.20;;;3.58;;
41480;SDS011;27217;51.220;5.308;2023-01-10T12:35:14;23.42;;;3.10;;
41480;SDS011;27217;51.220;5.308;2023-01-10T12:37:53;31.45;;;3.63;;
41480;SDS011;27217;51.220;5.308;2023-01-10T12:40:43;23.10;;;2.90;;
41480;SDS011;27217;51.220;5.308;2023-01-10T12:43:16;18.45;;;3.22;;
41480;SDS011;27217;51.220;5.308;2023-01-10T12:48:49;15.57;;;2.72;;
41480;SDS011;27217;51.220;5.308;2023-01-10T12:51:22;24.65;;;3.88;;
41480;SDS011;27217;51.220;5.308;2023-01-10T12:53:57;17.23;;;3.35;;
41480;SDS011;27217;51.220;5.308;2023-01-10T12:56:27;15.77;;;3.28;;
41480;SDS011;27217;51.220;5.308;2023-01-10T12:58:56;29.83;;;3.42;;
41480;SDS011;27217;51.220;5.308;2023-01-10T13:01:31;18.27;;;3.45;;
41480;SDS011;27217;51.220;5.308;2023-01-10T13:04:14;25.05;;;4.15;;
41480;SDS011;27217;51.220;5.308;2023-01-10T13:06:50;26.42;;;4.60;;
41480;SDS011;27217;51.220;5.308;2023-01-10T13:09:22;24.25;;;4.40;;
41480;SDS011;27217;51.220;5.308;2023-01-10T13:11:55;24.20;;;4.28;;
41480;SDS011;27217;51.220;5.308;2023-01-10T13:14:24;31.33;;;3.95;;
41480;SDS011;27217;51.220;5.308;2023-01-10T13:16:57;29.55;;;4.30;;
41480;SDS011;27217;51.220;5.308;2023-01-10T13:19:33;15.52;;;2.53;;
41480;SDS011;27217;51.220;5.308;2023-01-10T13:25:02;19.75;;;4.20;;
41480;SDS011;27217;51.220;5.308;2023-01-10T13:27:32;22.70;;;3.00;;
41480;SDS011;27217;51.220;5.308;2023-01-10T13:30:00;27.08;;;4.20;;
41480;SDS011;27217;51.220;5.308;2023-01-10T13:32:34;25.92;;;3.28;;
41480;SDS011;27217;51.220;5.308;2023-01-10T13:35:15;25.92;;;4.50;;
41480;SDS011;27217;51.220;5.308;2023-01-10T13:37:43;22.10;;;4.63;;
41480;SDS011;27217;51.220;5.308;2023-01-10T13:40:18;17.58;;;4.53;;
41480;SDS011;27217;51.220;5.308;2023-01-10T13:45:42;19.15;;;3.20;;
41480;SDS011;27217;51.220;5.308;2023-01-10T13:48:27;23.13;;;3.20;;
41480;SDS011;27217;51.220;5.308;2023-01-10T13:50:56;20.77;;;2.72;;
41480;SDS011;27217;51.220;5.308;2023-01-10T13:55:55;19.73;;;4.47;;
41480;SDS011;27217;51.220;5.308;2023-01-10T14:04:26;24.33;;;3.83;;
41480;SDS011;27217;51.220;5.308;2023-01-10T14:06:57;24.52;;;3.55;;
41480;SDS011;27217;51.220;5.308;2023-01-10T14:12:02;23.08;;;4.30;;
41480;SDS011;27217;51.220;5.308;2023-01-10T14:14:33;24.13;;;3.70;;
41480;SDS011;27217;51.220;5.308;2023-01-10T14:19:48;18.75;;;3.38;;
41480;SDS011;27217;51.220;5.308;2023-01-10T14:22:32;24.38;;;4.03;;
41480;SDS011;27217;51.220;5.308;2023-01-10T14:25:02;24.98;;;3.30;;
41480;SDS011;27217;51.220;5.308;2023-01-10T14:27:43;31.73;;;3.97;;
41480;SDS011;27217;51.220;5.308;2023-01-10T14:30:25;18.83;;;3.70;;
41480;SDS011;27217;51.220;5.308;2023-01-10T14:32:52;22.85;;;4.28;;
41480;SDS011;27217;51.220;5.308;2023-01-10T14:35:22;31.88;;;3.95;;
41480;SDS011;27217;51.220;5.308;2023-01-10T14:42:52;18.40;;;3.60;;
41480;SDS011;27217;51.220;5.308;2023-01-10T14:48:34;18.67;;;3.40;;
41480;SDS011;27217;51.220;5.308;2023-01-10T14:53:59;22.23;;;3.13;;
41480;SDS011;27217;51.220;5.308;2023-01-10T14:56:40;21.75;;;4.05;;
41480;SDS011;27217;51.220;5.308;2023-01-10T15:01:42;18.27;;;3.25;;
41480;SDS011;27217;51.220;5.308;2023-01-10T15:04:13;24.20;;;3.78;;
41480;SDS011;27217;51.220;5.308;2023-01-10T15:09:17;13.88;;;3.30;;
41480;SDS011;27217;51.220;5.308;2023-01-10T15:11:42;24.02;;;4.18;;
41480;SDS011;27217;51.220;5.308;2023-01-10T15:14:09;20.08;;;2.90;;
41480;SDS011;27217;51.220;5.308;2023-01-10T15:16:41;0.30;;;0.30;;
41480;SDS011;27217;51.220;5.308;2023-01-10T15:19:12;0.10;;;0.10;;
41480;SDS011;27217;51.220;5.308;2023-01-10T15:21:42;0.10;;;0.10;;
41480;SDS011;27217;51.220;5.308;2023-01-10T15:24:22;0.43;;;0.43;;
41480;SDS011;27217;51.220;5.308;2023-01-10T15:27:04;0.00;;;0.00;;
41480;SDS011;27217;51.220;5.308;2023-01-10T15:32:13;2.40;;;1.23;;
41480;SDS011;27217;51.220;5.308;2023-01-10T15:34:47;0.00;;;0.00;;
41480;SDS011;27217;51.220;5.308;2023-01-10T15:37:18;0.00;;;0.00;;
41480;SDS011;27217;51.220;5.308;2023-01-10T15:39:49;0.20;;;0.20;;
41480;SDS011;27217;51.220;5.308;2023-01-10T15:42:17;0.00;;;0.00;;
41480;SDS011;27217;51.220;5.308;2023-01-10T15:44:45;0.00;;;0.00;;
41480;SDS011;27217;51.220;5.308;2023-01-10T15:52:54;0.00;;;0.00;;
41480;SDS011;27217;51.220;5.308;2023-01-10T15:58:14;0.30;;;0.30;;
41480;SDS011;27217;51.220;5.308;2023-01-10T16:00:51;11.95;;;1.83;;
41480;SDS011;27217;51.220;5.308;2023-01-10T16:03:20;0.00;;;0.00;;
41480;SDS011;27217;51.220;5.308;2023-01-10T16:05:57;0.00;;;0.00;;
41480;SDS011;27217;51.220;5.308;2023-01-10T16:08:25;0.00;;;0.00;;
41480;SDS011;27217;51.220;5.308;2023-01-10T16:10:56;0.00;;;0.00;;
41480;SDS011;27217;51.220;5.308;2023-01-10T16:13:24;0.50;;;0.50;;
41480;SDS011;27217;51.220;5.308;2023-01-10T16:15:55;0.00;;;0.00;;
41480;SDS011;27217;51.220;5.308;2023-01-10T16:18:23;0.03;;;0.03;;
41480;SDS011;27217;51.220;5.308;2023-01-10T16:20:52;1.45;;;1.35;;
41480;SDS011;27217;51.220;5.308;2023-01-10T16:23:21;0.00;;;0.00;;
41480;SDS011;27217;51.220;5.308;2023-01-10T16:25:51;0.00;;;0.00;;
41480;SDS011;27217;51.220;5.308;2023-01-10T16:28:20;0.00;;;0.00;;
41480;SDS011;27217;51.220;5.308;2023-01-10T16:30:46;0.00;;;0.00;;
41480;SDS011;27217;51.220;5.308;2023-01-10T16:33:13;0.40;;;0.40;;
41480;SDS011;27217;51.220;5.308;2023-01-10T16:35:42;0.15;;;0.15;;
41480;SDS011;27217;51.220;5.308;2023-01-10T16:38:09;0.68;;;0.68;;
41480;SDS011;27217;51.220;5.308;2023-01-10T16:40:36;0.00;;;0.00;;
41480;SDS011;27217;51.220;5.308;2023-01-10T16:43:06;0.00;;;0.00;;
41480;SDS011;27217;51.220;5.308;2023-01-10T16:45:43;0.52;;;0.40;;
41480;SDS011;27217;51.220;5.308;2023-01-10T16:48:13;0.00;;;0.00;;
41480;SDS011;27217;51.220;5.308;2023-01-10T16:50:40;0.00;;;0.00;;
41480;SDS011;27217;51.220;5.308;2023-01-10T16:53:06;0.00;;;0.00;;
41480;SDS011;27217;51.220;5.308;2023-01-10T16:58:09;0.00;;;0.00;;
41480;SDS011;27217;51.220;5.308;2023-01-10T17:00:37;0.00;;;0.00;;
41480;SDS011;27217;51.220;5.308;2023-01-10T17:03:09;0.00;;;0.00;;
41480;SDS011;27217;51.220;5.308;2023-01-10T17:05:57;0.00;;;0.00;;
41480;SDS011;27217;51.220;5.308;2023-01-10T17:08:23;0.00;;;0.00;;
41480;SDS011;27217;51.220;5.308;2023-01-10T17:10:50;0.00;;;0.00;;
41480;SDS011;27217;51.220;5.308;2023-01-10T17:13:21;0.00;;;0.00;;
41480;SDS011;27217;51.220;5.308;2023-01-10T17:15:49;0.00;;;0.00;;
41480;SDS011;27217;51.220;5.308;2023-01-10T17:18:18;0.20;;;0.20;;
41480;SDS011;27217;51.220;5.308;2023-01-10T17:20:45;0.00;;;0.00;;